createdAt,value
2022-08-02T00:00:48.735Z,99.90
2022-08-02T00:03:17.320Z,99.90
2022-08-02T00:05:53.299Z,99.90
2022-08-02T00:08:22.708Z,99.90
2022-08-02T00:10:51.606Z,99.90
2022-08-02T00:13:20.178Z,99.90
2022-08-02T00:15:50.263Z,99.90
2022-08-02T00:18:18.927Z,99.90
2022-08-02T00:20:47.757Z,99.90
2022-08-02T00:23:16.326Z,99.90
2022-08-02T00:25:55.525Z,99.90
2022-08-02T00:28:27.990Z,99.90
2022-08-02T00:30:58.882Z,99.90
2022-08-02T00:34:27.087Z,99.90
2022-08-02T00:36:16.841Z,99.90
2022-08-02T00:38:46.390Z,99.90
2022-08-02T00:41:17.544Z,99.90
2022-08-02T00:43:47.047Z,99.90
2022-08-02T00:46:18.079Z,99.90
2022-08-02T00:48:47.147Z,99.90
2022-08-02T00:51:17.496Z,99.90
2022-08-02T00:53:46.076Z,99.90
2022-08-02T00:56:14.716Z,99.90
2022-08-02T00:58:43.309Z,99.90
2022-08-02T01:01:12.006Z,99.90
2022-08-02T01:03:41.983Z,99.90
2022-08-02T01:06:11.267Z,99.90
2022-08-02T01:08:40.767Z,99.90
2022-08-02T01:11:09.756Z,99.90
2022-08-02T01:13:38.377Z,99.90
2022-08-02T01:16:15.378Z,99.90
2022-08-02T01:18:52.050Z,99.90
2022-08-02T01:21:39.432Z,99.90
2022-08-02T01:24:36.507Z,99.90
2022-08-02T01:27:20.418Z,99.90
2022-08-02T01:29:57.756Z,99.90
2022-08-02T01:32:32.611Z,99.90
2022-08-02T01:35:04.663Z,99.90
2022-08-02T01:37:39.175Z,99.90
2022-08-02T01:40:11.392Z,99.90
2022-08-02T01:42:42.949Z,99.90
2022-08-02T01:45:14.643Z,99.90
2022-08-02T01:47:45.577Z,99.90
2022-08-02T01:50:17.474Z,99.90
2022-08-02T01:52:53.786Z,99.90
2022-08-02T01:55:33.396Z,99.90
2022-08-02T01:58:05.994Z,99.90
2022-08-02T02:00:40.201Z,99.90
2022-08-02T02:03:14.450Z,99.90
2022-08-02T02:05:44.244Z,99.90
2022-08-02T02:08:14.722Z,99.90
2022-08-02T02:10:57.591Z,99.90
2022-08-02T02:13:48.513Z,99.90
2022-08-02T02:16:20.896Z,99.90
2022-08-02T02:18:51.530Z,99.90
2022-08-02T02:21:20.638Z,99.90
2022-08-02T02:23:50.766Z,99.90
2022-08-02T02:26:29.756Z,99.90
2022-08-02T02:29:02.878Z,99.90
2022-08-02T02:31:37.561Z,99.90
2022-08-02T02:34:10.416Z,99.90
2022-08-02T02:36:42.637Z,99.90
2022-08-02T02:39:15.580Z,99.90
2022-08-02T02:41:45.957Z,99.90
2022-08-02T02:44:18.291Z,99.90
2022-08-02T02:46:51.097Z,99.90
2022-08-02T02:49:21.433Z,99.90
2022-08-02T02:51:51.618Z,99.90
2022-08-02T02:54:29.938Z,99.90
2022-08-02T02:57:03.717Z,99.90
2022-08-02T02:59:33.930Z,99.90
2022-08-02T03:02:05.770Z,99.90
2022-08-02T03:04:36.075Z,99.90
2022-08-02T03:07:24.606Z,99.90
2022-08-02T03:09:55.026Z,99.90
2022-08-02T03:12:31.312Z,99.90
2022-08-02T03:15:01.359Z,99.90
2022-08-02T03:17:41.151Z,99.90
2022-08-02T03:20:12.824Z,99.90
2022-08-02T03:22:41.621Z,99.90
2022-08-02T03:25:12.027Z,99.90
2022-08-02T03:27:40.936Z,99.90
2022-08-02T03:30:12.725Z,99.90
2022-08-02T03:32:45.219Z,99.90
2022-08-02T03:35:23.119Z,99.90
2022-08-02T03:37:55.165Z,99.90
2022-08-02T03:40:24.832Z,99.90
2022-08-02T03:42:54.077Z,99.90
2022-08-02T03:45:23.513Z,99.90
2022-08-02T03:47:53.674Z,99.90
2022-08-02T03:50:28.915Z,99.90
2022-08-02T03:52:58.674Z,99.90
2022-08-02T03:55:27.697Z,99.90
2022-08-02T03:57:56.640Z,99.90
2022-08-02T04:00:25.680Z,99.90
2022-08-02T04:02:55.768Z,99.90
2022-08-02T04:05:26.742Z,99.90
2022-08-02T04:08:32.556Z,99.90
2022-08-02T04:11:01.682Z,99.90
2022-08-02T04:13:35.903Z,99.90
2022-08-02T04:16:11.135Z,99.90
2022-08-02T04:18:47.364Z,99.90
2022-08-02T04:21:19.523Z,99.90
2022-08-02T04:23:49.748Z,99.90
2022-08-02T04:26:19.623Z,99.90
2022-08-02T04:28:57.672Z,99.90
2022-08-02T04:31:27.468Z,99.90
2022-08-02T04:33:58.085Z,99.90
2022-08-02T04:36:30.667Z,99.90
2022-08-02T04:39:00.627Z,99.90
2022-08-02T04:41:48.023Z,99.90
2022-08-02T04:44:16.810Z,99.90
2022-08-02T04:46:46.541Z,99.90
2022-08-02T04:49:16.652Z,99.90
2022-08-02T04:51:45.397Z,99.90
2022-08-02T04:54:14.358Z,99.90
2022-08-02T04:56:42.941Z,99.90
2022-08-02T04:59:12.485Z,99.90
2022-08-02T05:01:42.537Z,99.90
2022-08-02T05:04:11.412Z,99.90
2022-08-02T05:06:41.337Z,99.90
2022-08-02T05:09:09.961Z,99.90
2022-08-02T05:11:38.545Z,99.90
2022-08-02T05:14:07.484Z,99.90
2022-08-02T05:16:36.096Z,99.90
2022-08-02T05:19:04.949Z,99.90
2022-08-02T05:21:33.583Z,99.90
2022-08-02T05:24:03.727Z,99.90
2022-08-02T05:26:32.348Z,99.90
2022-08-02T05:29:00.999Z,99.90
2022-08-02T05:31:29.716Z,99.90
2022-08-02T05:33:58.320Z,99.90
2022-08-02T05:36:26.973Z,99.90
2022-08-02T05:39:04.739Z,99.90
2022-08-02T05:41:35.254Z,99.90
2022-08-02T05:44:05.575Z,99.90
2022-08-02T05:46:34.197Z,99.90
2022-08-02T05:49:04.140Z,99.90
2022-08-02T05:51:39.114Z,99.90
2022-08-02T05:54:19.984Z,99.90
2022-08-02T05:56:57.273Z,99.90
2022-08-02T05:59:32.303Z,99.90
2022-08-02T06:02:27.435Z,99.90
2022-08-02T06:05:05.684Z,99.90
2022-08-02T06:07:37.601Z,99.90
2022-08-02T06:10:07.767Z,99.90
2022-08-02T06:12:47.080Z,99.90
2022-08-02T06:15:17.197Z,99.90
2022-08-02T06:17:46.148Z,99.90
2022-08-02T06:20:17.133Z,99.90
2022-08-02T06:22:47.346Z,99.90
2022-08-02T06:25:49.926Z,99.90
2022-08-02T06:28:10.293Z,99.90
2022-08-02T06:30:40.920Z,99.90
2022-08-02T06:33:09.588Z,99.90
2022-08-02T06:35:46.299Z,99.90
2022-08-02T06:38:23.034Z,99.90
2022-08-02T06:40:58.086Z,99.90
2022-08-02T06:43:37.789Z,99.90
2022-08-02T06:47:10.148Z,99.90
2022-08-02T06:48:58.094Z,99.90
2022-08-02T06:51:27.067Z,99.90
2022-08-02T06:53:55.800Z,99.90
2022-08-02T06:56:24.639Z,99.90
2022-08-02T06:58:54.656Z,99.90
2022-08-02T07:01:23.373Z,99.90
2022-08-02T07:03:52.256Z,99.90
2022-08-02T07:06:22.338Z,99.90
2022-08-02T07:09:11.255Z,99.90
2022-08-02T07:11:39.651Z,99.90
2022-08-02T07:14:09.571Z,99.90
2022-08-02T07:16:38.146Z,99.90
2022-08-02T07:19:06.810Z,99.90
2022-08-02T07:21:59.526Z,99.90
2022-08-02T07:24:24.138Z,99.90
2022-08-02T07:27:10.533Z,99.90
2022-08-02T07:29:46.164Z,99.90
2022-08-02T07:32:16.583Z,99.90
2022-08-02T07:34:51.170Z,99.90
2022-08-02T07:37:35.955Z,99.90
2022-08-02T07:40:13.860Z,99.90
2022-08-02T07:42:44.269Z,99.90
2022-08-02T07:45:15.312Z,99.90
2022-08-02T07:47:45.476Z,99.90
2022-08-02T07:50:15.608Z,99.90
2022-08-02T07:52:45.770Z,99.90
2022-08-02T07:55:16.146Z,99.90
2022-08-02T07:57:46.761Z,99.90
2022-08-02T08:00:18.370Z,99.90
2022-08-02T08:02:47.720Z,99.90
2022-08-02T08:05:16.728Z,99.90
2022-08-02T08:07:45.522Z,99.90
2022-08-02T08:10:14.140Z,99.90
2022-08-02T08:12:42.807Z,99.90
2022-08-02T08:15:12.149Z,99.90
2022-08-02T08:17:42.061Z,99.90
2022-08-02T08:20:15.644Z,99.90
2022-08-02T08:22:44.829Z,99.90
2022-08-02T08:25:13.509Z,99.90
2022-08-02T08:27:49.463Z,99.90
2022-08-02T08:30:18.098Z,99.90
2022-08-02T08:32:50.658Z,99.90
2022-08-02T08:35:19.546Z,99.90
2022-08-02T08:37:48.469Z,99.90
2022-08-02T08:40:21.492Z,99.90
2022-08-02T08:42:50.154Z,99.90
2022-08-02T08:45:19.262Z,99.90
2022-08-02T08:47:52.727Z,99.90
2022-08-02T08:50:26.080Z,99.90
2022-08-02T08:52:58.987Z,99.90
2022-08-02T08:55:28.797Z,99.90
2022-08-02T08:58:00.365Z,99.90
2022-08-02T09:00:32.181Z,99.90
2022-08-02T09:03:04.607Z,99.90
2022-08-02T09:05:35.832Z,99.90
2022-08-02T09:08:04.972Z,99.90
2022-08-02T09:10:38.704Z,99.90
2022-08-02T09:13:38.162Z,99.90
2022-08-02T09:16:12.570Z,99.90
2022-08-02T09:18:47.602Z,99.90
2022-08-02T09:21:17.838Z,99.90
2022-08-02T09:23:48.175Z,99.90
2022-08-02T09:26:19.809Z,99.90
2022-08-02T09:28:51.616Z,99.90
2022-08-02T09:31:23.805Z,99.90
2022-08-02T09:33:55.050Z,99.90
2022-08-02T09:36:24.737Z,99.90
2022-08-02T09:38:58.432Z,99.90
2022-08-02T09:41:28.889Z,99.90
2022-08-02T09:44:04.561Z,99.90
2022-08-02T09:46:38.924Z,99.90
2022-08-02T09:49:11.487Z,99.90
2022-08-02T09:51:41.847Z,99.90
2022-08-02T09:54:13.028Z,99.90
2022-08-02T09:56:45.655Z,99.90
2022-08-02T09:59:15.626Z,99.90
2022-08-02T10:01:50.416Z,99.90
2022-08-02T10:04:24.945Z,99.90
2022-08-02T10:06:54.988Z,99.90
2022-08-02T10:09:23.900Z,99.90
2022-08-02T10:11:53.099Z,99.90
2022-08-02T10:14:23.548Z,99.90
2022-08-02T10:16:54.732Z,99.90
2022-08-02T10:20:02.731Z,99.90
2022-08-02T10:22:16.506Z,99.90
2022-08-02T10:24:49.125Z,99.90
2022-08-02T10:27:21.064Z,99.90
2022-08-02T10:29:55.262Z,99.20
2022-08-02T10:32:28.614Z,98.80
2022-08-02T10:35:18.434Z,98.70
2022-08-02T10:37:53.873Z,98.60
2022-08-02T10:40:27.036Z,97.90
2022-08-02T10:43:00.815Z,97.20
2022-08-02T10:45:30.316Z,96.70
2022-08-02T10:48:04.074Z,96.70
2022-08-02T10:50:56.084Z,96.30
2022-08-02T10:53:26.474Z,95.90
2022-08-02T10:55:56.357Z,96.00
2022-08-02T10:58:29.318Z,95.30
2022-08-02T11:00:59.920Z,95.00
2022-08-02T11:03:42.175Z,94.40
2022-08-02T11:06:25.509Z,94.60
2022-08-02T11:09:33.181Z,94.40
2022-08-02T11:12:04.604Z,93.10
2022-08-02T11:14:35.301Z,94.20
2022-08-02T11:17:12.139Z,94.00
2022-08-02T11:20:18.997Z,93.70
2022-08-02T11:22:50.323Z,93.40
2022-08-02T11:26:03.302Z,93.40
2022-08-02T11:28:31.900Z,92.50
2022-08-02T11:31:02.839Z,92.60
2022-08-02T11:33:33.093Z,92.30
2022-08-02T11:36:03.888Z,91.80
2022-08-02T11:38:34.129Z,91.70
2022-08-02T11:41:09.468Z,90.90
2022-08-02T11:43:39.951Z,90.20
2022-08-02T11:46:15.054Z,89.60
2022-08-02T11:48:44.716Z,88.30
2022-08-02T11:51:15.055Z,86.70
2022-08-02T11:53:47.707Z,86.50
2022-08-02T11:56:24.823Z,86.50
2022-08-02T11:59:05.607Z,86.00
2022-08-02T12:01:36.811Z,85.20
2022-08-02T12:04:19.469Z,84.50
2022-08-02T12:06:59.745Z,84.40
2022-08-02T12:09:31.417Z,83.50
2022-08-02T12:12:01.779Z,83.50
2022-08-02T12:14:32.199Z,83.40
2022-08-02T12:17:18.255Z,83.10
2022-08-02T12:19:48.595Z,82.70
2022-08-02T12:22:19.827Z,81.00
2022-08-02T12:24:55.851Z,79.80
2022-08-02T12:27:36.313Z,79.30
2022-08-02T12:30:10.531Z,79.10
2022-08-02T12:32:39.494Z,79.10
2022-08-02T12:35:14.862Z,78.40
2022-08-02T12:37:56.442Z,77.60
2022-08-02T12:40:30.444Z,76.80
2022-08-02T12:43:01.257Z,76.60
2022-08-02T12:45:40.139Z,76.50
2022-08-02T12:48:10.928Z,76.50
2022-08-02T12:50:40.593Z,76.60
2022-08-02T12:53:10.828Z,76.10
2022-08-02T12:56:00.678Z,75.10
2022-08-02T12:58:32.043Z,73.10
2022-08-02T13:01:02.769Z,72.40
2022-08-02T13:04:10.123Z,71.40
2022-08-02T13:09:17.910Z,70.00
2022-08-02T13:11:48.006Z,69.90
2022-08-02T13:14:17.130Z,70.10
2022-08-02T13:16:47.578Z,69.90
2022-08-02T13:19:16.785Z,69.60
2022-08-02T13:22:01.049Z,69.30
2022-08-02T13:24:41.184Z,69.00
2022-08-02T13:27:22.368Z,68.60
2022-08-02T13:29:51.559Z,68.50
2022-08-02T13:32:20.555Z,67.50
2022-08-02T13:34:49.609Z,66.10
2022-08-02T13:37:18.667Z,65.20
2022-08-02T13:40:05.708Z,64.80
2022-08-02T13:42:37.392Z,63.60
2022-08-02T13:45:12.609Z,63.80
2022-08-02T13:48:03.731Z,63.50
2022-08-02T13:50:33.095Z,62.30
2022-08-02T13:53:01.803Z,61.70
2022-08-02T13:55:30.822Z,61.00
2022-08-02T13:58:00.895Z,60.00
2022-08-02T14:00:34.740Z,59.70
2022-08-02T14:03:06.744Z,59.10
2022-08-02T14:05:47.235Z,58.60
2022-08-02T14:08:18.363Z,58.10
2022-08-02T14:10:47.878Z,57.70
2022-08-02T14:13:18.588Z,58.30
2022-08-02T14:15:47.787Z,58.70
2022-08-02T14:18:16.496Z,58.30
2022-08-02T14:20:46.058Z,58.40
2022-08-02T14:23:14.818Z,58.60
2022-08-02T14:25:43.795Z,58.40
2022-08-02T14:28:12.488Z,58.40
2022-08-02T14:30:42.596Z,57.70
2022-08-02T14:33:11.653Z,57.00
2022-08-02T14:35:40.250Z,57.10
2022-08-02T14:38:09.296Z,57.50
2022-08-02T14:40:37.996Z,56.50
2022-08-02T14:43:06.633Z,56.50
2022-08-02T14:45:40.849Z,56.40
2022-08-02T14:48:13.304Z,56.40
2022-08-02T14:50:42.928Z,56.50
2022-08-02T14:53:12.045Z,57.40
2022-08-02T14:55:41.293Z,57.60
2022-08-02T14:58:10.363Z,58.00
2022-08-02T15:00:41.065Z,57.90
2022-08-02T15:03:12.588Z,57.90
2022-08-02T15:05:41.490Z,57.20
2022-08-02T15:08:10.098Z,57.30
2022-08-02T15:10:39.181Z,57.40
2022-08-02T15:13:07.864Z,57.40
2022-08-02T15:15:43.191Z,57.30
2022-08-02T15:18:15.124Z,56.60
2022-08-02T15:20:57.218Z,56.50
2022-08-02T15:23:37.181Z,56.60
2022-08-02T15:26:06.805Z,56.80
2022-08-02T15:28:35.677Z,56.40
2022-08-02T15:31:04.370Z,56.30
2022-08-02T15:33:34.421Z,56.20
2022-08-02T15:36:03.097Z,55.90
2022-08-02T15:38:31.711Z,56.10
2022-08-02T15:41:00.677Z,55.80
2022-08-02T15:43:29.713Z,56.80
2022-08-02T15:45:59.308Z,56.60
2022-08-02T15:48:27.935Z,56.50
2022-08-02T15:50:58.123Z,56.40
2022-08-02T15:53:27.000Z,56.20
2022-08-02T15:56:05.609Z,56.20
2022-08-02T15:58:36.156Z,55.70
2022-08-02T16:01:14.237Z,56.10
2022-08-02T16:03:42.836Z,56.20
2022-08-02T16:06:13.225Z,56.80
2022-08-02T16:08:53.360Z,57.30
2022-08-02T16:11:23.507Z,57.80
2022-08-02T16:13:54.143Z,57.90
2022-08-02T16:16:24.630Z,58.00
2022-08-02T16:18:53.520Z,58.20
2022-08-02T16:21:24.928Z,57.70
2022-08-02T16:24:01.190Z,57.30
2022-08-02T16:26:34.028Z,57.40
2022-08-02T16:29:05.022Z,57.80
2022-08-02T16:31:34.936Z,58.10
2022-08-02T16:34:05.192Z,58.50
2022-08-02T16:36:35.260Z,59.00
2022-08-02T16:39:04.164Z,59.40
2022-08-02T16:41:52.005Z,59.30
2022-08-02T16:44:27.136Z,59.50
2022-08-02T16:47:01.095Z,60.50
2022-08-02T16:50:05.395Z,61.00
2022-08-02T16:52:20.780Z,63.20
2022-08-02T16:54:50.268Z,63.10
2022-08-02T16:57:19.867Z,62.80
2022-08-02T16:59:57.236Z,62.50
2022-08-02T17:02:28.650Z,62.20
2022-08-02T17:04:57.753Z,61.40
2022-08-02T17:08:10.420Z,60.50
2022-08-02T17:10:18.724Z,60.60
2022-08-02T17:12:51.466Z,60.50
2022-08-02T17:16:08.306Z,60.00
2022-08-02T17:18:09.118Z,60.00
2022-08-02T17:20:38.245Z,60.00
2022-08-02T17:25:58.159Z,59.10
2022-08-02T17:28:31.415Z,59.70
2022-08-02T17:31:02.123Z,60.10
2022-08-02T17:33:30.779Z,59.70
2022-08-02T17:36:00.347Z,59.40
2022-08-02T17:38:30.487Z,60.00
2022-08-02T17:41:00.667Z,60.90
2022-08-02T17:43:32.747Z,61.00
2022-08-02T17:46:02.708Z,61.80
2022-08-02T17:48:55.043Z,61.80
2022-08-02T17:52:15.314Z,61.70
2022-08-02T17:54:15.095Z,62.00
2022-08-02T17:56:47.913Z,62.80
2022-08-02T17:59:20.418Z,65.30
2022-08-02T18:01:53.087Z,66.90
2022-08-02T18:04:27.526Z,68.80
2022-08-02T18:06:59.144Z,69.40
2022-08-02T18:09:34.642Z,70.20
2022-08-02T18:12:03.374Z,70.40
2022-08-02T18:14:32.056Z,71.10
2022-08-02T18:17:00.919Z,71.60
2022-08-02T18:19:33.081Z,72.00
2022-08-02T18:22:11.248Z,72.50
2022-08-02T18:24:41.709Z,73.20
2022-08-02T18:27:14.160Z,73.80
2022-08-02T18:29:42.836Z,73.90
2022-08-02T18:32:16.114Z,74.70
2022-08-02T18:35:05.122Z,75.90
2022-08-02T18:37:43.718Z,76.20
2022-08-02T18:40:17.815Z,76.80
2022-08-02T18:42:48.878Z,77.40
2022-08-02T18:45:19.672Z,78.70
2022-08-02T18:47:50.931Z,78.30
2022-08-02T18:50:20.758Z,79.00
2022-08-02T18:52:49.486Z,79.20
2022-08-02T18:56:00.186Z,79.80
2022-08-02T18:58:18.889Z,80.20
2022-08-02T19:00:51.757Z,80.50
2022-08-02T19:03:21.043Z,80.70
2022-08-02T19:05:53.412Z,80.90
2022-08-02T19:08:26.335Z,81.60
2022-08-02T19:10:57.641Z,82.20
2022-08-02T19:13:31.447Z,82.70
2022-08-02T19:16:00.072Z,83.20
2022-08-02T19:18:30.211Z,83.80
2022-08-02T19:21:05.235Z,84.40
2022-08-02T19:23:34.540Z,84.90
2022-08-02T19:26:04.725Z,85.50
2022-08-02T19:28:33.453Z,86.30
2022-08-02T19:31:02.484Z,86.70
2022-08-02T19:34:04.784Z,87.30
2022-08-02T19:36:19.640Z,87.90
2022-08-02T19:38:49.278Z,88.60
2022-08-02T19:41:22.240Z,89.40
2022-08-02T19:44:26.859Z,90.00
2022-08-02T19:46:41.569Z,90.40
2022-08-02T19:49:16.497Z,90.60
2022-08-02T19:51:55.561Z,91.20
2022-08-02T19:54:54.347Z,91.70
2022-08-02T19:57:19.487Z,92.20
2022-08-02T19:59:48.446Z,92.80
2022-08-02T20:02:19.024Z,93.30
2022-08-02T20:04:50.428Z,94.10
2022-08-02T20:07:49.894Z,94.90
2022-08-02T20:10:12.520Z,95.60
2022-08-02T20:12:43.504Z,96.50
2022-08-02T20:18:02.249Z,98.30
2022-08-02T20:20:31.945Z,99.30
2022-08-02T20:23:32.027Z,99.90
2022-08-02T20:26:02.803Z,99.90
2022-08-02T20:28:33.181Z,99.90
2022-08-02T20:31:07.124Z,99.90
2022-08-02T20:33:55.645Z,99.90
2022-08-02T20:36:25.662Z,99.90
2022-08-02T20:38:54.742Z,99.90
2022-08-02T20:41:23.385Z,99.90
2022-08-02T20:44:15.384Z,99.90
2022-08-02T20:46:44.742Z,99.90
2022-08-02T20:52:02.993Z,99.90
2022-08-02T20:54:35.728Z,99.90
2022-08-02T20:57:04.320Z,99.90
2022-08-02T20:59:34.273Z,99.90
2022-08-02T21:02:05.971Z,99.90
2022-08-02T21:04:41.476Z,99.90
2022-08-02T21:07:13.076Z,99.90
2022-08-02T21:09:53.820Z,99.90
2022-08-02T21:12:29.914Z,99.90
2022-08-02T21:15:00.389Z,99.90
2022-08-02T21:17:37.076Z,99.90
2022-08-02T21:20:17.555Z,99.90
2022-08-02T21:22:56.871Z,99.90
2022-08-02T21:25:50.595Z,99.90
2022-08-02T21:28:17.717Z,99.90
2022-08-02T21:30:48.351Z,99.90
2022-08-02T21:33:23.196Z,99.90
2022-08-02T21:35:52.745Z,99.90
2022-08-02T21:38:35.866Z,99.90
2022-08-02T21:41:11.286Z,99.90
2022-08-02T21:43:43.879Z,99.90
2022-08-02T21:46:14.713Z,99.90
2022-08-02T21:48:43.514Z,99.90
2022-08-02T21:51:15.876Z,99.90
2022-08-02T21:54:18.918Z,99.90
2022-08-02T21:56:33.303Z,99.90
2022-08-02T21:59:02.323Z,99.90
2022-08-02T22:01:52.677Z,99.90
2022-08-02T22:04:22.449Z,99.90
2022-08-02T22:06:51.017Z,99.90
2022-08-02T22:09:42.272Z,99.90
2022-08-02T22:12:09.949Z,99.90
2022-08-02T22:14:41.245Z,99.90
2022-08-02T22:17:13.843Z,99.90
2022-08-02T22:19:53.702Z,99.90
2022-08-02T22:22:28.217Z,99.90
2022-08-02T22:24:57.820Z,99.90
2022-08-02T22:28:34.794Z,99.90
2022-08-02T22:30:17.827Z,99.90
2022-08-02T22:33:14.971Z,99.90
2022-08-02T22:35:44.193Z,99.90
2022-08-02T22:38:17.586Z,99.90
2022-08-02T22:40:48.027Z,99.90
2022-08-02T22:43:22.648Z,99.90
2022-08-02T22:45:52.037Z,99.90
2022-08-02T22:48:22.053Z,99.90
2022-08-02T22:50:53.495Z,99.90
2022-08-02T22:53:24.706Z,99.90
2022-08-02T22:56:04.299Z,99.90
2022-08-02T22:58:33.231Z,99.90
2022-08-02T22:58:38.243Z,59.40
2022-08-02T22:58:54.954Z,97.40
2022-08-02T22:59:07.050Z,99.90
2022-08-02T23:01:02.272Z,99.90
2022-08-02T23:03:32.417Z,99.90
2022-08-02T23:06:01.053Z,99.90
2022-08-02T23:08:29.609Z,99.90
2022-08-02T23:10:58.189Z,99.90
2022-08-02T23:13:28.386Z,99.90
2022-08-02T23:16:17.382Z,99.90
2022-08-02T23:19:04.927Z,99.90
2022-08-02T23:21:46.144Z,99.90
2022-08-02T23:24:23.629Z,99.90
2022-08-02T23:26:52.199Z,99.90
2022-08-02T23:29:20.775Z,99.90
2022-08-02T23:31:49.435Z,99.90
2022-08-02T23:34:19.426Z,99.90
2022-08-02T23:36:48.017Z,99.90
2022-08-02T23:39:16.667Z,99.90
2022-08-02T23:41:45.360Z,99.90
2022-08-02T23:44:23.672Z,99.90
2022-08-02T23:46:52.812Z,99.90
2022-08-02T23:49:23.504Z,99.90
2022-08-02T23:51:52.587Z,99.90
2022-08-02T23:54:21.447Z,99.90
2022-08-02T23:56:50.088Z,99.90
2022-08-02T23:59:18.893Z,99.90
